Keosauqua, Iowa
Current Conditions -  °F | °C
As of 6:15 PM on Sunday 25 Jan 2015 (Local Time) from KFFL Reporting Station
Overcast Overcast  
Wind Chill: 19°   Ceiling: 4500
Heat Index: 28°   Visibility: 10mi
Dew Point: 23°   Wind: 10mph
Humidity: 80%   Direction: 10°N
Pressure: 30.03"   Gusts: NA
Location:  40.73°N, 91.96°W
Report Text: KFFL 260015Z AUTO 01009KT 10SM SCT016 SCT035 OVC045 M02/M05 A3003 RMK AO2
Loading
Personal Weather Stations






























Interactive Weather Map New forecast layout! Learn more

10-Day Weather Forecast

Advertisements
Track Severe Weather on mobile